Old Glory, Texas
Current Conditions -  °F | °C
As of 10:58 PM on Tuesday 25 Nov 2014 (Local Time) from KDYS Reporting Station
Clear Clear  
Wind Chill: 42°   Ceiling: Unl
Heat Index: 47°   Visibility: 10mi
Dew Point: 22°   Wind: 13mph
Humidity: 37%   Direction: 210°SSW
Pressure: 30.08"   Gusts: NA
Location:  33.13°N, 100.06°W
Report Text: KDYS 260458Z AUTO 21011KT 10SM CLR 09/M06 A3008 RMK AO2 SLP181 T00851056 $
Loading
Personal Weather Stations






























Interactive Weather Map New forecast layout! Learn more

10-Day Weather Forecast

Advertisements
Track Severe Weather on mobile